createdAt,value
2023-04-10T00:03:44.158Z,101824.69
2023-04-10T00:07:48.321Z,101826.00
2023-04-10T00:11:51.150Z,101824.13
2023-04-10T00:15:55.359Z,101823.50
2023-04-10T00:19:59.343Z,101815.38
2023-04-10T00:24:04.702Z,101812.88
2023-04-10T00:28:07.765Z,101812.69
2023-04-10T00:32:10.502Z,101808.31
2023-04-10T00:36:13.450Z,101801.84
2023-04-10T00:40:17.943Z,101804.53
2023-04-10T00:44:21.055Z,101799.75
2023-04-10T00:48:24.039Z,101794.72
2023-04-10T00:52:27.583Z,101784.09
2023-04-10T00:56:32.910Z,101778.28
2023-04-10T01:00:35.995Z,101780.16
2023-04-10T01:04:39.079Z,101775.97
2023-04-10T01:08:52.726Z,101773.88
2023-04-10T01:13:09.776Z,101781.59
2023-04-10T01:17:17.899Z,101770.97
2023-04-10T01:21:23.959Z,101761.09
2023-04-10T01:25:44.717Z,101758.34
2023-04-10T01:29:57.322Z,101758.72
2023-04-10T01:34:07.039Z,101749.13
2023-04-10T01:38:12.672Z,101752.22
2023-04-10T01:42:16.654Z,101755.59
2023-04-10T01:46:23.452Z,101749.50
2023-04-10T01:50:28.632Z,101751.59
2023-04-10T01:54:33.621Z,101744.03
2023-04-10T01:58:37.919Z,101744.25
2023-04-10T02:02:42.813Z,101738.19
2023-04-10T02:06:52.382Z,101728.59
2023-04-10T02:11:02.625Z,101740.44
2023-04-10T02:15:09.424Z,101734.59
2023-04-10T02:19:14.162Z,101735.38
2023-04-10T02:23:21.545Z,101730.16
2023-04-10T02:27:31.566Z,101731.00
2023-04-10T02:31:55.391Z,101729.50
2023-04-10T02:36:01.186Z,101734.91
2023-04-10T02:40:08.933Z,101731.78
2023-04-10T02:44:21.511Z,101730.88
2023-04-10T02:48:24.238Z,101718.06
2023-04-10T02:52:36.113Z,101709.88
2023-04-10T02:56:39.600Z,101716.31
2023-04-10T03:00:42.561Z,101709.25
2023-04-10T03:04:54.809Z,101700.03
2023-04-10T03:08:59.194Z,101691.44
2023-04-10T03:13:03.524Z,101687.53
2023-04-10T03:17:06.287Z,101677.56
2023-04-10T03:21:11.210Z,101684.38
2023-04-10T03:25:16.018Z,101671.91
2023-04-10T03:29:19.102Z,101672.09
2023-04-10T03:33:21.961Z,101674.19
2023-04-10T03:37:25.456Z,101673.00
2023-04-10T03:41:29.921Z,101673.81
2023-04-10T03:45:34.424Z,101677.94
2023-04-10T03:49:37.974Z,101670.84
2023-04-10T03:53:42.645Z,101671.69
2023-04-10T03:57:51.646Z,101672.53
2023-04-10T04:01:58.327Z,101677.66
2023-04-10T04:06:01.295Z,101671.34
2023-04-10T04:10:09.652Z,101662.63
2023-04-10T04:14:34.032Z,101661.59
2023-04-10T04:18:53.884Z,101664.09
2023-04-10T04:23:08.517Z,101666.63
2023-04-10T04:27:43.040Z,101664.94
2023-04-10T04:32:06.148Z,101665.31
2023-04-10T04:36:51.292Z,101664.22
2023-04-10T04:41:11.850Z,101657.34
2023-04-10T04:45:21.774Z,101653.72
2023-04-10T04:49:44.365Z,101646.81
2023-04-10T04:54:13.288Z,101645.63
2023-04-10T04:58:15.990Z,101645.41
2023-04-10T05:02:29.413Z,101653.94
2023-04-10T05:06:56.411Z,101650.47
2023-04-10T05:11:18.629Z,101641.31
2023-04-10T05:15:40.244Z,101648.94
2023-04-10T05:20:01.844Z,101641.66
2023-04-10T05:24:21.521Z,101635.03
2023-04-10T05:28:47.628Z,101640.91
2023-04-10T05:33:38.771Z,101631.41
2023-04-10T05:38:26.698Z,101631.66
2023-04-10T05:42:43.136Z,101641.13
2023-04-10T05:47:19.844Z,101637.25
2023-04-10T05:51:31.959Z,101637.97
2023-04-10T05:55:52.424Z,101639.94
2023-04-10T06:00:17.869Z,101645.09
2023-04-10T06:04:56.555Z,101632.94
2023-04-10T06:08:59.784Z,101628.09
2023-04-10T06:13:03.611Z,101618.00
2023-04-10T06:17:09.022Z,101614.63
2023-04-10T06:21:11.841Z,101605.75
2023-04-10T06:25:16.190Z,101598.59
2023-04-10T06:29:19.241Z,101594.44
2023-04-10T06:33:26.417Z,101596.53
2023-04-10T06:37:31.512Z,101590.06
2023-04-10T06:41:35.398Z,101587.94
2023-04-10T06:45:49.921Z,101586.81
2023-04-10T06:49:54.083Z,101585.47
2023-04-10T06:53:57.151Z,101587.09
2023-04-10T06:57:59.840Z,101583.00
2023-04-10T07:02:03.853Z,101580.63
2023-04-10T07:06:08.698Z,101574.72
2023-04-10T07:10:12.992Z,101562.53
2023-04-10T07:14:15.811Z,101558.03
2023-04-10T07:18:18.437Z,101558.47
2023-04-10T07:22:22.558Z,101546.38
2023-04-10T07:26:25.501Z,101535.03
2023-04-10T07:30:28.159Z,101527.59
2023-04-10T07:34:43.133Z,101520.00
2023-04-10T07:39:05.552Z,101504.03
2023-04-10T07:43:08.194Z,101514.97
2023-04-10T07:47:11.445Z,101501.09
2023-04-10T07:51:14.578Z,101493.13
2023-04-10T07:55:18.871Z,101486.00
2023-04-10T07:59:21.604Z,101473.66
2023-04-10T08:03:24.601Z,101459.97
2023-04-10T08:07:27.615Z,101458.03
2023-04-10T08:11:37.397Z,101437.28
2023-04-10T08:15:41.032Z,101432.75
2023-04-10T08:19:44.007Z,101432.59
2023-04-10T08:23:48.839Z,101423.53
2023-04-10T08:28:02.357Z,101423.59
2023-04-10T08:32:30.596Z,101410.78
2023-04-10T08:36:51.280Z,101407.81
2023-04-10T08:40:54.549Z,101398.19
2023-04-10T08:44:58.587Z,101396.09
2023-04-10T08:49:04.359Z,101394.72
2023-04-10T08:53:11.627Z,101388.13
2023-04-10T08:57:20.607Z,101375.91
2023-04-10T09:01:26.195Z,101377.19
2023-04-10T09:05:30.808Z,101375.47
2023-04-10T09:10:04.415Z,101377.03
2023-04-10T09:14:43.893Z,101379.28
2023-04-10T09:18:50.620Z,101378.16
2023-04-10T09:23:24.295Z,101387.94
2023-04-10T09:27:53.449Z,101381.41
2023-04-10T09:32:14.906Z,101381.53
2023-04-10T09:36:19.303Z,101368.53
2023-04-10T09:40:24.452Z,101353.25
2023-04-10T09:44:31.761Z,101346.16
2023-04-10T09:48:34.519Z,101334.69
2023-04-10T09:52:39.548Z,101335.03
2023-04-10T09:56:42.877Z,101313.94
2023-04-10T10:00:47.542Z,101322.50
2023-04-10T10:04:52.528Z,101321.22
2023-04-10T10:08:57.068Z,101322.13
2023-04-10T10:13:03.629Z,101304.28
2023-04-10T10:17:12.464Z,101282.63
2023-04-10T10:21:17.063Z,101274.09
2023-04-10T10:25:24.122Z,101261.72
2023-04-10T10:29:28.629Z,101254.28
2023-04-10T10:33:36.499Z,101241.63
2023-04-10T10:37:46.082Z,101239.06
2023-04-10T10:42:23.199Z,101234.09
2023-04-10T10:46:49.884Z,101219.31
2023-04-10T10:51:36.317Z,101217.97
2023-04-10T10:56:16.360Z,101204.22
2023-04-10T11:00:26.778Z,101191.84
2023-04-10T11:04:45.781Z,101184.06
2023-04-10T11:08:49.887Z,101184.84
2023-04-10T11:13:19.014Z,101178.53
2023-04-10T11:17:51.862Z,101178.28
2023-04-10T11:22:07.556Z,101178.88
2023-04-10T11:26:10.850Z,101167.81
2023-04-10T11:30:31.019Z,101164.50
2023-04-10T11:34:44.620Z,101165.03
2023-04-10T11:38:57.470Z,101150.66
2023-04-10T11:43:13.975Z,101146.59
2023-04-10T11:47:17.000Z,101134.38
2023-04-10T11:51:21.444Z,101128.63
2023-04-10T11:55:37.728Z,101128.03
2023-04-10T11:59:40.737Z,101121.38
2023-04-10T12:03:46.106Z,101115.31
2023-04-10T12:07:51.587Z,101104.03
2023-04-10T12:11:58.822Z,101103.38
2023-04-10T12:16:04.955Z,101096.19
2023-04-10T12:20:08.557Z,101087.66
2023-04-10T12:24:14.156Z,101078.97
2023-04-10T12:28:20.821Z,101079.03
2023-04-10T12:32:25.036Z,101073.56
2023-04-10T12:36:29.853Z,101066.09
2023-04-10T12:40:33.969Z,101044.66
2023-04-10T12:44:36.670Z,101040.19
2023-04-10T12:48:39.401Z,101025.47
2023-04-10T12:52:44.321Z,101030.38
2023-04-10T12:56:48.741Z,101035.09
2023-04-10T13:00:51.574Z,101026.81
2023-04-10T13:04:56.255Z,101019.31
2023-04-10T13:08:59.929Z,101009.94
2023-04-10T13:13:04.011Z,101006.78
2023-04-10T13:17:06.655Z,100996.03
2023-04-10T13:21:09.898Z,100992.94
2023-04-10T13:25:13.435Z,100993.88
2023-04-10T13:29:17.824Z,100977.19
2023-04-10T13:33:22.161Z,100972.88
2023-04-10T13:37:26.571Z,100964.72
2023-04-10T13:41:29.424Z,100957.94
2023-04-10T13:45:34.792Z,100938.94
2023-04-10T13:49:37.561Z,100925.72
2023-04-10T13:53:40.311Z,100920.97
2023-04-10T13:57:43.328Z,100913.69
2023-04-10T14:01:47.695Z,100894.47
2023-04-10T14:05:52.553Z,100897.78
2023-04-10T14:09:55.425Z,100888.47
2023-04-10T14:13:59.186Z,100884.66
2023-04-10T14:18:03.328Z,100861.03
2023-04-10T14:27:41.245Z,100852.81
2023-04-10T14:31:54.890Z,100837.72
2023-04-10T14:36:01.937Z,100822.13
2023-04-10T14:40:05.640Z,100818.00
2023-04-10T14:44:08.365Z,100812.78
2023-04-10T14:48:12.691Z,100810.31
2023-04-10T14:52:17.595Z,100793.34
2023-04-10T14:56:20.569Z,100785.72
2023-04-10T15:00:25.100Z,100773.41
2023-04-10T15:04:40.119Z,100774.22
2023-04-10T15:08:52.624Z,100763.03
2023-04-10T15:12:55.289Z,100759.19
2023-04-10T15:16:58.071Z,100741.94
2023-04-10T15:21:00.817Z,100736.44
2023-04-10T15:25:05.339Z,100731.81
2023-04-10T15:29:08.036Z,100722.78
2023-04-10T15:33:10.799Z,100714.81
2023-04-10T15:37:13.635Z,100723.00
2023-04-10T15:41:17.756Z,100701.03
2023-04-10T15:45:20.554Z,100687.59
2023-04-10T15:49:33.884Z,100692.00
2023-04-10T15:53:39.540Z,100679.34
2023-04-10T15:57:43.618Z,100670.03
2023-04-10T16:01:46.471Z,100677.44
2023-04-10T16:05:49.625Z,100665.94
2023-04-10T16:09:55.125Z,100660.44
2023-04-10T16:13:59.223Z,100656.88
2023-04-10T16:18:02.110Z,100642.88
2023-04-10T16:22:04.921Z,100635.44
2023-04-10T16:26:07.706Z,100625.03
2023-04-10T16:30:12.658Z,100611.88
2023-04-10T16:34:15.498Z,100595.41
2023-04-10T16:38:18.212Z,100598.69
2023-04-10T16:42:20.917Z,100602.00
2023-04-10T16:46:25.000Z,100589.38
2023-04-10T16:50:27.770Z,100598.75
2023-04-10T16:54:30.541Z,100599.06
2023-04-10T16:58:34.176Z,100598.81
2023-04-10T17:02:38.600Z,100596.94
2023-04-10T17:06:41.318Z,100607.16
2023-04-10T17:10:44.013Z,100619.81
2023-04-10T17:14:46.735Z,100614.91
2023-04-10T17:18:50.696Z,100602.56
2023-04-10T17:22:53.437Z,100586.63
2023-04-10T17:26:57.043Z,100593.66
2023-04-10T17:30:59.735Z,100620.69
2023-04-10T17:35:03.843Z,100618.09
2023-04-10T17:39:06.606Z,100608.19
2023-04-10T17:43:09.829Z,100586.50
2023-04-10T17:47:12.653Z,100584.25
2023-04-10T17:51:16.764Z,100584.25
2023-04-10T17:55:21.102Z,100573.53
2023-04-10T17:59:24.117Z,100568.53
2023-04-10T18:03:27.001Z,100560.56
2023-04-10T18:07:31.213Z,100566.53
2023-04-10T18:11:34.009Z,100568.44
2023-04-10T18:15:36.723Z,100582.09
2023-04-10T18:19:39.412Z,100562.63
2023-04-10T18:23:44.549Z,100571.75
2023-04-10T18:28:09.602Z,100552.84
2023-04-10T18:32:11.473Z,100561.31
2023-04-10T18:36:18.776Z,100573.56
2023-04-10T18:40:24.034Z,100575.16
2023-04-10T18:44:28.865Z,100587.69
2023-04-10T18:48:35.318Z,100598.22
2023-04-10T18:52:38.314Z,100610.13
2023-04-10T18:56:42.361Z,100605.56
2023-04-10T19:00:45.040Z,100592.03
2023-04-10T19:04:47.894Z,100581.59
2023-04-10T19:08:50.796Z,100585.50
2023-04-10T19:12:56.095Z,100565.81
2023-04-10T19:16:58.808Z,100555.41
2023-04-10T19:21:02.634Z,100547.94
2023-04-10T19:25:05.852Z,100520.16
2023-04-10T19:29:09.927Z,100520.16
2023-04-10T19:33:12.626Z,100532.72
2023-04-10T19:37:15.350Z,100518.25
2023-04-10T19:41:18.235Z,100539.19
2023-04-10T19:45:23.699Z,100513.16
2023-04-10T19:49:28.450Z,100530.84
2023-04-10T19:53:32.082Z,100556.50
2023-04-10T19:57:34.834Z,100521.94
2023-04-10T20:01:38.971Z,100492.81
2023-04-10T20:05:41.681Z,100486.50
2023-04-10T20:09:44.852Z,100487.59
2023-04-10T20:13:47.540Z,100478.78
2023-04-10T20:17:51.655Z,100477.94
2023-04-10T20:21:54.451Z,100451.56
2023-04-10T20:25:57.194Z,100447.75
2023-04-10T20:29:59.863Z,100440.91
2023-04-10T20:34:04.136Z,100455.84
2023-04-10T20:38:06.885Z,100442.50
2023-04-10T20:42:09.622Z,100442.25
2023-04-10T20:46:12.321Z,100439.78
2023-04-10T20:50:16.576Z,100418.22
2023-04-10T20:54:23.100Z,100423.63
2023-04-10T20:58:25.882Z,100447.53
2023-04-10T21:02:29.077Z,100449.41
2023-04-10T21:06:34.378Z,100448.31
2023-04-10T21:10:43.777Z,100433.56
2023-04-10T21:14:47.889Z,100429.94
2023-04-10T21:18:51.304Z,100446.28
2023-04-10T21:22:55.361Z,100433.00
2023-04-10T21:26:58.059Z,100435.66
2023-04-10T21:31:00.863Z,100424.75
2023-04-10T21:35:03.560Z,100427.47
2023-04-10T21:39:09.105Z,100427.47
2023-04-10T21:43:11.922Z,100422.59
2023-04-10T21:47:14.617Z,100435.66
2023-04-10T21:51:17.746Z,100438.06
2023-04-10T21:55:22.012Z,100433.44
2023-04-10T21:59:24.811Z,100422.78
2023-04-10T22:03:27.681Z,100427.19
2023-04-10T22:07:30.460Z,100420.88
2023-04-10T22:11:37.103Z,100428.00
2023-04-10T22:15:40.179Z,100416.53
2023-04-10T22:19:42.909Z,100405.06
2023-04-10T22:23:45.606Z,100413.25
2023-04-10T22:27:49.682Z,100405.25
2023-04-10T22:31:52.702Z,100393.22
2023-04-10T22:35:55.606Z,100400.53
2023-04-10T22:40:00.424Z,100392.53
2023-04-10T22:44:04.535Z,100381.88
2023-04-10T22:48:07.303Z,100382.97
2023-04-10T22:52:09.960Z,100392.53
2023-04-10T22:56:13.088Z,100389.22
2023-04-10T23:00:17.578Z,100385.19
2023-04-10T23:04:20.306Z,100376.22
2023-04-10T23:08:23.035Z,100371.25
2023-04-10T23:12:26.885Z,100365.25
2023-04-10T23:16:31.096Z,100365.25
2023-04-10T23:20:33.848Z,100366.66
2023-04-10T23:24:36.587Z,100361.72
2023-04-10T23:28:39.280Z,100350.84
2023-04-10T23:32:43.419Z,100341.25
2023-04-10T23:36:46.490Z,100348.56
2023-04-10T23:40:49.173Z,100344.13
2023-04-10T23:44:51.876Z,100350.38
2023-04-10T23:48:56.692Z,100338.09
2023-04-10T23:53:00.569Z,100336.41
2023-04-10T23:57:03.307Z,100343.50
